sensor_id;sensor_type;location;lat;lon;timestamp;pressure;altitude;pressure_sealevel;temperature;humidity
7748;BME280;3918;42.564;23.164;2023-05-09T04:01:58;-11650.84;;;-142.29;100.00
7748;BME280;3918;42.564;23.164;2023-05-09T04:04:25;-11650.84;;;-142.29;100.00
7748;BME280;3918;42.564;23.164;2023-05-09T04:06:53;-11650.84;;;-142.29;100.00
7748;BME280;3918;42.564;23.164;2023-05-09T04:09:19;-11650.84;;;-142.29;100.00
7748;BME280;3918;42.564;23.164;2023-05-09T04:11:46;-11650.84;;;-142.29;100.00
7748;BME280;3918;42.564;23.164;2023-05-09T04:14:13;-11650.84;;;-142.29;100.00
7748;BME280;3918;42.564;23.164;2023-05-09T04:16:40;-11650.84;;;-142.29;100.00
7748;BME280;3918;42.564;23.164;2023-05-09T04:19:09;-11650.84;;;-142.29;100.00
7748;BME280;3918;42.564;23.164;2023-05-09T04:21:35;-11650.84;;;-142.29;100.00
7748;BME280;3918;42.564;23.164;2023-05-09T04:24:02;-11650.84;;;-142.29;100.00
7748;BME280;3918;42.564;23.164;2023-05-09T04:26:30;-11650.84;;;-142.29;100.00
7748;BME280;3918;42.564;23.164;2023-05-09T04:28:57;-11650.84;;;-142.29;100.00
7748;BME280;3918;42.564;23.164;2023-05-09T04:31:24;-11650.84;;;-142.29;98.66
7748;BME280;3918;42.564;23.164;2023-05-09T04:33:51;-11650.84;;;-142.29;93.01
7748;BME280;3918;42.564;23.164;2023-05-09T04:36:19;-11650.84;;;-142.29;85.43
7748;BME280;3918;42.564;23.164;2023-05-09T04:38:46;-11650.84;;;-142.29;62.09
7748;BME280;3918;42.564;23.164;2023-05-09T04:41:13;-11650.84;;;-142.29;53.13
7748;BME280;3918;42.564;23.164;2023-05-09T04:43:40;-11650.84;;;-142.29;48.33
7748;BME280;3918;42.564;23.164;2023-05-09T04:46:07;-11650.84;;;-142.29;46.99
7748;BME280;3918;42.564;23.164;2023-05-09T04:48:34;-11650.84;;;-142.29;46.86
7748;BME280;3918;42.564;23.164;2023-05-09T04:51:01;-11650.84;;;-142.29;47.58
7748;BME280;3918;42.564;23.164;2023-05-09T04:53:29;-11650.84;;;-142.29;47.47
7748;BME280;3918;42.564;23.164;2023-05-09T04:55:56;-11650.84;;;-142.29;45.68
7748;BME280;3918;42.564;23.164;2023-05-09T04:58:23;-11650.84;;;-142.29;43.64
7748;BME280;3918;42.564;23.164;2023-05-09T05:00:51;-11650.84;;;-142.29;42.50
7748;BME280;3918;42.564;23.164;2023-05-09T05:03:17;-11650.84;;;-142.29;41.71
7748;BME280;3918;42.564;23.164;2023-05-09T05:05:44;-11650.84;;;-142.29;41.48
7748;BME280;3918;42.564;23.164;2023-05-09T05:08:11;-11650.84;;;-142.29;40.67
7748;BME280;3918;42.564;23.164;2023-05-09T05:10:39;-11650.84;;;-142.29;40.66
7748;BME280;3918;42.564;23.164;2023-05-09T05:13:06;-11650.84;;;-142.29;39.66
7748;BME280;3918;42.564;23.164;2023-05-09T05:15:33;-11650.84;;;-142.29;38.67
7748;BME280;3918;42.564;23.164;2023-05-09T05:18:00;-11650.84;;;-142.29;37.28
7748;BME280;3918;42.564;23.164;2023-05-09T05:20:27;-11650.84;;;-142.29;35.62
7748;BME280;3918;42.564;23.164;2023-05-09T05:22:53;-11650.84;;;-142.29;36.18
7748;BME280;3918;42.564;23.164;2023-05-09T05:25:20;-11650.84;;;-142.29;36.50
7748;BME280;3918;42.564;23.164;2023-05-09T05:27:48;-11650.84;;;-142.29;35.33
7748;BME280;3918;42.564;23.164;2023-05-09T05:30:15;-11650.84;;;-142.29;36.17
7748;BME280;3918;42.564;23.164;2023-05-09T05:32:42;-11650.84;;;-142.29;37.22
7748;BME280;3918;42.564;23.164;2023-05-09T05:35:09;-11650.84;;;-142.29;36.84
7748;BME280;3918;42.564;23.164;2023-05-09T05:37:36;-11650.84;;;-142.29;36.82
7748;BME280;3918;42.564;23.164;2023-05-09T05:40:05;-11650.84;;;-142.29;36.71
7748;BME280;3918;42.564;23.164;2023-05-09T05:42:32;-11650.84;;;-142.29;35.93
7748;BME280;3918;42.564;23.164;2023-05-09T05:45:05;-11650.84;;;-142.29;35.69
7748;BME280;3918;42.564;23.164;2023-05-09T05:47:33;-11650.84;;;-142.29;35.30
7748;BME280;3918;42.564;23.164;2023-05-09T05:50:00;-11650.84;;;-142.29;34.71
7748;BME280;3918;42.564;23.164;2023-05-09T05:52:27;-11650.84;;;-142.29;34.35
7748;BME280;3918;42.564;23.164;2023-05-09T05:54:55;-11650.84;;;-142.29;33.80
7748;BME280;3918;42.564;23.164;2023-05-09T05:57:21;-11650.84;;;-142.29;33.40
7748;BME280;3918;42.564;23.164;2023-05-09T05:59:49;-11650.84;;;-142.29;33.10
7748;BME280;3918;42.564;23.164;2023-05-09T06:02:18;-11650.84;;;-142.29;32.73
7748;BME280;3918;42.564;23.164;2023-05-09T06:04:44;-11650.84;;;-142.29;32.66
7748;BME280;3918;42.564;23.164;2023-05-09T06:07:11;-11650.84;;;-142.29;33.65
7748;BME280;3918;42.564;23.164;2023-05-09T06:09:39;-11650.84;;;-142.29;34.26
7748;BME280;3918;42.564;23.164;2023-05-09T06:12:06;-11650.84;;;-142.29;34.93
7748;BME280;3918;42.564;23.164;2023-05-09T06:14:33;-11650.84;;;-142.29;37.01
7748;BME280;3918;42.564;23.164;2023-05-09T06:17:00;-11650.84;;;-142.29;38.66
7748;BME280;3918;42.564;23.164;2023-05-09T06:19:28;-11650.84;;;-142.29;37.55
7748;BME280;3918;42.564;23.164;2023-05-09T06:21:55;-11650.84;;;-142.29;35.69
7748;BME280;3918;42.564;23.164;2023-05-09T06:24:22;-11650.84;;;-142.29;33.80
7748;BME280;3918;42.564;23.164;2023-05-09T06:26:49;-11650.84;;;-142.29;32.21
7748;BME280;3918;42.564;23.164;2023-05-09T06:29:16;-11650.84;;;-142.29;32.25
7748;BME280;3918;42.564;23.164;2023-05-09T06:31:43;-11650.84;;;-142.29;33.65
7748;BME280;3918;42.564;23.164;2023-05-09T06:34:09;-11650.84;;;-142.29;33.24
7748;BME280;3918;42.564;23.164;2023-05-09T06:36:37;-11650.84;;;-142.29;34.65
7748;BME280;3918;42.564;23.164;2023-05-09T06:39:04;-11650.84;;;-142.29;35.87
7748;BME280;3918;42.564;23.164;2023-05-09T06:41:31;-11650.84;;;-142.29;37.03
7748;BME280;3918;42.564;23.164;2023-05-09T06:43:58;-11650.84;;;-142.29;39.39
7748;BME280;3918;42.564;23.164;2023-05-09T06:46:26;-11650.84;;;-142.29;41.71
7748;BME280;3918;42.564;23.164;2023-05-09T06:48:53;-11650.84;;;-142.29;42.70
7748;BME280;3918;42.564;23.164;2023-05-09T06:51:20;-11650.84;;;-142.29;43.62
7748;BME280;3918;42.564;23.164;2023-05-09T06:53:48;-11650.84;;;-142.29;45.65
7748;BME280;3918;42.564;23.164;2023-05-09T06:56:15;-11650.84;;;-142.29;49.07
7748;BME280;3918;42.564;23.164;2023-05-09T06:58:44;-11650.84;;;-142.29;54.17
7748;BME280;3918;42.564;23.164;2023-05-09T07:01:11;-11650.84;;;-142.29;58.76
7748;BME280;3918;42.564;23.164;2023-05-09T07:03:37;-11650.84;;;-142.29;60.95
7748;BME280;3918;42.564;23.164;2023-05-09T07:06:05;-11650.84;;;-142.29;70.70
7748;BME280;3918;42.564;23.164;2023-05-09T07:08:31;-11650.84;;;-142.29;72.20
7748;BME280;3918;42.564;23.164;2023-05-09T07:11:00;-11650.84;;;-142.29;76.68
7748;BME280;3918;42.564;23.164;2023-05-09T07:13:26;-11650.84;;;-142.29;73.42
7748;BME280;3918;42.564;23.164;2023-05-09T07:15:53;-11650.84;;;-142.29;68.39
7748;BME280;3918;42.564;23.164;2023-05-09T07:18:20;-11650.84;;;-142.29;66.80
7748;BME280;3918;42.564;23.164;2023-05-09T07:20:47;-11650.84;;;-142.29;74.79
7748;BME280;3918;42.564;23.164;2023-05-09T07:23:13;-11650.84;;;-142.29;74.30
7748;BME280;3918;42.564;23.164;2023-05-09T07:25:40;-11650.84;;;-142.29;76.13
7748;BME280;3918;42.564;23.164;2023-05-09T07:28:09;-11650.84;;;-142.29;83.46
7748;BME280;3918;42.564;23.164;2023-05-09T07:30:37;-11650.84;;;-142.29;79.39
7748;BME280;3918;42.564;23.164;2023-05-09T07:33:04;-11650.84;;;-142.29;80.16
7748;BME280;3918;42.564;23.164;2023-05-09T07:35:31;-11650.84;;;-142.29;83.03
7748;BME280;3918;42.564;23.164;2023-05-09T07:37:57;-11650.84;;;-142.29;82.19
7748;BME280;3918;42.564;23.164;2023-05-09T07:40:24;-11650.84;;;-142.29;88.42
7748;BME280;3918;42.564;23.164;2023-05-09T07:42:51;-11650.84;;;-142.29;97.71
7748;BME280;3918;42.564;23.164;2023-05-09T07:45:20;-11650.84;;;-142.29;81.06
7748;BME280;3918;42.564;23.164;2023-05-09T07:47:47;-11650.84;;;-142.29;61.08
7748;BME280;3918;42.564;23.164;2023-05-09T07:50:14;-11650.84;;;-142.29;51.39
7748;BME280;3918;42.564;23.164;2023-05-09T07:52:41;-11650.84;;;-142.29;49.61
7748;BME280;3918;42.564;23.164;2023-05-09T07:55:08;-11650.84;;;-142.29;51.14
7748;BME280;3918;42.564;23.164;2023-05-09T07:57:36;-11650.84;;;-142.29;52.20
7748;BME280;3918;42.564;23.164;2023-05-09T08:00:05;-11650.84;;;-142.29;53.86
7748;BME280;3918;42.564;23.164;2023-05-09T08:02:33;-11650.84;;;-142.29;55.28
7748;BME280;3918;42.564;23.164;2023-05-09T08:05:00;-11650.84;;;-142.29;56.77
7748;BME280;3918;42.564;23.164;2023-05-09T08:07:27;-11650.84;;;-142.29;66.52
7748;BME280;3918;42.564;23.164;2023-05-09T08:09:54;-11650.84;;;-142.29;72.40
7748;BME280;3918;42.564;23.164;2023-05-09T08:12:21;-11650.84;;;-142.29;77.87
7748;BME280;3918;42.564;23.164;2023-05-09T08:14:48;-11650.84;;;-142.29;82.05
7748;BME280;3918;42.564;23.164;2023-05-09T08:17:14;-11650.84;;;-142.29;82.78
7748;BME280;3918;42.564;23.164;2023-05-09T08:19:43;-11650.84;;;-142.29;85.16
7748;BME280;3918;42.564;23.164;2023-05-09T08:22:15;-11650.84;;;-142.29;93.21
7748;BME280;3918;42.564;23.164;2023-05-09T08:24:42;-11650.84;;;-142.29;86.79
7748;BME280;3918;42.564;23.164;2023-05-09T08:27:09;-11650.84;;;-142.29;78.77
7748;BME280;3918;42.564;23.164;2023-05-09T08:29:38;-11650.84;;;-142.29;75.73
7748;BME280;3918;42.564;23.164;2023-05-09T08:32:05;-11650.84;;;-142.29;64.93
7748;BME280;3918;42.564;23.164;2023-05-09T08:34:32;-11650.84;;;-142.29;71.54
7748;BME280;3918;42.564;23.164;2023-05-09T08:37:00;-11650.84;;;-142.29;68.88
7748;BME280;3918;42.564;23.164;2023-05-09T08:39:28;-11650.84;;;-142.29;66.51
7748;BME280;3918;42.564;23.164;2023-05-09T08:41:58;-11650.84;;;-142.29;75.85
7748;BME280;3918;42.564;23.164;2023-05-09T08:44:25;-11650.84;;;-142.29;74.30
7748;BME280;3918;42.564;23.164;2023-05-09T08:46:55;-11650.84;;;-142.29;66.33
7748;BME280;3918;42.564;23.164;2023-05-09T08:49:24;-11650.84;;;-142.29;66.05
7748;BME280;3918;42.564;23.164;2023-05-09T08:51:53;-11650.84;;;-142.29;56.13
7748;BME280;3918;42.564;23.164;2023-05-09T08:54:22;-11650.84;;;-142.29;50.20
7748;BME280;3918;42.564;23.164;2023-05-09T08:56:49;-11650.84;;;-142.29;53.87
7748;BME280;3918;42.564;23.164;2023-05-09T08:59:17;-11650.84;;;-142.29;49.01
7748;BME280;3918;42.564;23.164;2023-05-09T09:01:44;-11650.84;;;-142.29;48.36
7748;BME280;3918;42.564;23.164;2023-05-09T09:04:11;-11650.84;;;-142.29;51.40
7748;BME280;3918;42.564;23.164;2023-05-09T09:06:38;-11650.84;;;-142.29;47.20
7748;BME280;3918;42.564;23.164;2023-05-09T09:09:07;-11650.84;;;-142.29;48.38
7748;BME280;3918;42.564;23.164;2023-05-09T09:11:36;-11650.84;;;-142.29;47.01
7748;BME280;3918;42.564;23.164;2023-05-09T09:14:06;-11650.84;;;-142.29;47.56
7748;BME280;3918;42.564;23.164;2023-05-09T09:16:35;-11650.84;;;-142.29;49.59
7748;BME280;3918;42.564;23.164;2023-05-09T09:19:04;-11650.84;;;-142.29;50.75
7748;BME280;3918;42.564;23.164;2023-05-09T09:21:33;-11650.84;;;-142.29;48.85
7748;BME280;3918;42.564;23.164;2023-05-09T09:24:01;-11650.84;;;-142.29;49.58
7748;BME280;3918;42.564;23.164;2023-05-09T09:26:28;-11650.84;;;-142.29;49.31
7748;BME280;3918;42.564;23.164;2023-05-09T09:28:57;-11650.84;;;-142.29;49.90
7748;BME280;3918;42.564;23.164;2023-05-09T09:31:26;-11650.84;;;-142.29;45.56
7748;BME280;3918;42.564;23.164;2023-05-09T09:33:58;-11650.84;;;-142.29;46.92
7748;BME280;3918;42.564;23.164;2023-05-09T09:36:26;-11650.84;;;-142.29;48.05
7748;BME280;3918;42.564;23.164;2023-05-09T09:38:55;-11650.84;;;-142.29;48.79
7748;BME280;3918;42.564;23.164;2023-05-09T09:41:29;-11650.84;;;-142.29;52.56
7748;BME280;3918;42.564;23.164;2023-05-09T09:43:57;-11650.84;;;-142.29;56.00
7748;BME280;3918;42.564;23.164;2023-05-09T09:46:24;-11650.84;;;-142.29;57.81
7748;BME280;3918;42.564;23.164;2023-05-09T09:48:51;-11650.84;;;-142.29;57.11
7748;BME280;3918;42.564;23.164;2023-05-09T09:51:21;-11650.84;;;-142.29;63.30
7748;BME280;3918;42.564;23.164;2023-05-09T09:53:47;-11650.84;;;-142.29;59.56
7748;BME280;3918;42.564;23.164;2023-05-09T09:56:14;-11650.84;;;-142.29;63.13
7748;BME280;3918;42.564;23.164;2023-05-09T09:58:41;-11650.84;;;-142.29;65.13
7748;BME280;3918;42.564;23.164;2023-05-09T10:01:10;-11650.84;;;-142.29;66.97
7748;BME280;3918;42.564;23.164;2023-05-09T10:03:39;-11650.84;;;-142.29;66.34
7748;BME280;3918;42.564;23.164;2023-05-09T10:06:09;-11650.84;;;-142.29;60.54
7748;BME280;3918;42.564;23.164;2023-05-09T10:08:37;-11650.84;;;-142.29;60.65
7748;BME280;3918;42.564;23.164;2023-05-09T10:11:03;-11650.84;;;-142.29;63.96
7748;BME280;3918;42.564;23.164;2023-05-09T10:13:33;-11650.84;;;-142.29;70.42
7748;BME280;3918;42.564;23.164;2023-05-09T10:16:00;-11650.84;;;-142.29;75.52
7748;BME280;3918;42.564;23.164;2023-05-09T10:18:30;-11650.84;;;-142.29;72.89
7748;BME280;3918;42.564;23.164;2023-05-09T10:20:57;-11650.84;;;-142.29;58.47
7748;BME280;3918;42.564;23.164;2023-05-09T10:23:29;-11650.84;;;-142.29;62.66
7748;BME280;3918;42.564;23.164;2023-05-09T10:26:04;-11650.84;;;-142.29;57.08
7748;BME280;3918;42.564;23.164;2023-05-09T10:28:34;-11650.84;;;-142.29;58.50
7748;BME280;3918;42.564;23.164;2023-05-09T10:31:06;-11650.84;;;-142.29;52.98
7748;BME280;3918;42.564;23.164;2023-05-09T10:33:41;-11650.84;;;-142.29;49.89
7748;BME280;3918;42.564;23.164;2023-05-09T10:36:09;-11650.84;;;-142.29;49.79
7748;BME280;3918;42.564;23.164;2023-05-09T10:38:37;-11650.84;;;-142.29;51.19
7748;BME280;3918;42.564;23.164;2023-05-09T10:41:05;-11650.84;;;-142.29;52.37
7748;BME280;3918;42.564;23.164;2023-05-09T10:43:32;-11650.84;;;-142.29;48.79
7748;BME280;3918;42.564;23.164;2023-05-09T10:46:00;-11650.84;;;-142.29;52.29
7748;BME280;3918;42.564;23.164;2023-05-09T10:48:28;-11650.84;;;-142.29;54.70
7748;BME280;3918;42.564;23.164;2023-05-09T10:50:57;-11650.84;;;-142.29;50.40
7748;BME280;3918;42.564;23.164;2023-05-09T10:53:39;-11650.84;;;-142.29;55.43
7748;BME280;3918;42.564;23.164;2023-05-09T10:56:06;-11650.84;;;-142.29;51.96
7748;BME280;3918;42.564;23.164;2023-05-09T10:58:33;-11650.84;;;-142.29;48.47
7748;BME280;3918;42.564;23.164;2023-05-09T11:01:03;-11650.84;;;-142.29;46.72
7748;BME280;3918;42.564;23.164;2023-05-09T11:03:51;-11650.84;;;-142.29;47.76
7748;BME280;3918;42.564;23.164;2023-05-09T11:06:47;-11650.84;;;-142.29;49.12
7748;BME280;3918;42.564;23.164;2023-05-09T11:09:22;-11650.84;;;-142.29;50.05
7748;BME280;3918;42.564;23.164;2023-05-09T11:11:51;-11650.84;;;-142.29;49.01
7748;BME280;3918;42.564;23.164;2023-05-09T11:14:28;-11650.84;;;-142.29;48.09
7748;BME280;3918;42.564;23.164;2023-05-09T11:16:56;-11650.84;;;-142.29;48.37
7748;BME280;3918;42.564;23.164;2023-05-09T11:19:33;-11650.84;;;-142.29;50.63
7748;BME280;3918;42.564;23.164;2023-05-09T11:22:11;-11650.84;;;-142.29;49.61
7748;BME280;3918;42.564;23.164;2023-05-09T11:24:38;-11650.84;;;-142.29;50.04
7748;BME280;3918;42.564;23.164;2023-05-09T11:27:13;-11650.84;;;-142.29;50.91
7748;BME280;3918;42.564;23.164;2023-05-09T11:29:45;-11650.84;;;-142.29;50.84
7748;BME280;3918;42.564;23.164;2023-05-09T11:32:13;-11650.84;;;-142.29;53.21
7748;BME280;3918;42.564;23.164;2023-05-09T11:34:42;-11650.84;;;-142.29;53.53
7748;BME280;3918;42.564;23.164;2023-05-09T11:37:11;-11650.84;;;-142.29;54.19
7748;BME280;3918;42.564;23.164;2023-05-09T11:39:56;-11650.84;;;-142.29;55.64
7748;BME280;3918;42.564;23.164;2023-05-09T11:42:24;-11650.84;;;-142.29;54.30
7748;BME280;3918;42.564;23.164;2023-05-09T11:44:51;-11650.84;;;-142.29;57.62
7748;BME280;3918;42.564;23.164;2023-05-09T11:47:18;-11650.84;;;-142.29;61.42
7748;BME280;3918;42.564;23.164;2023-05-09T11:49:46;-11650.84;;;-142.29;63.15
7748;BME280;3918;42.564;23.164;2023-05-09T11:52:15;-11650.84;;;-142.29;69.09
7748;BME280;3918;42.564;23.164;2023-05-09T11:54:42;-11650.84;;;-142.29;72.56
7748;BME280;3918;42.564;23.164;2023-05-09T11:57:09;-11650.84;;;-142.29;73.20
7748;BME280;3918;42.564;23.164;2023-05-09T11:59:41;-11650.84;;;-142.29;72.47
7748;BME280;3918;42.564;23.164;2023-05-09T12:02:09;-11650.84;;;-142.29;73.31
7748;BME280;3918;42.564;23.164;2023-05-09T12:04:36;-11650.84;;;-142.29;71.91
7748;BME280;3918;42.564;23.164;2023-05-09T12:07:03;-11650.84;;;-142.29;75.19
7748;BME280;3918;42.564;23.164;2023-05-09T12:09:32;-11650.84;;;-142.29;77.62
7748;BME280;3918;42.564;23.164;2023-05-09T12:12:07;-11650.84;;;-142.29;78.58
7748;BME280;3918;42.564;23.164;2023-05-09T12:14:35;-11650.84;;;-142.29;78.28
7748;BME280;3918;42.564;23.164;2023-05-09T12:17:02;-11650.84;;;-142.29;77.71
7748;BME280;3918;42.564;23.164;2023-05-09T12:19:28;-11650.84;;;-142.29;77.96
7748;BME280;3918;42.564;23.164;2023-05-09T12:21:55;-11650.84;;;-142.29;77.39
7748;BME280;3918;42.564;23.164;2023-05-09T12:24:23;-11650.84;;;-142.29;83.42
7748;BME280;3918;42.564;23.164;2023-05-09T12:26:52;-11650.84;;;-142.29;84.08
7748;BME280;3918;42.564;23.164;2023-05-09T12:29:20;-11650.84;;;-142.29;83.08
7748;BME280;3918;42.564;23.164;2023-05-09T12:31:47;-11650.84;;;-142.29;78.76
7748;BME280;3918;42.564;23.164;2023-05-09T12:34:14;-11650.84;;;-142.29;79.23
7748;BME280;3918;42.564;23.164;2023-05-09T12:36:43;-11650.84;;;-142.29;75.49
7748;BME280;3918;42.564;23.164;2023-05-09T12:39:15;-11650.84;;;-142.29;68.64
7748;BME280;3918;42.564;23.164;2023-05-09T12:41:43;-11650.84;;;-142.29;74.11
7748;BME280;3918;42.564;23.164;2023-05-09T12:44:19;-11650.84;;;-142.29;76.97
7748;BME280;3918;42.564;23.164;2023-05-09T12:46:55;-11650.84;;;-142.29;64.67
7748;BME280;3918;42.564;23.164;2023-05-09T12:49:24;-11650.84;;;-142.29;61.05
7748;BME280;3918;42.564;23.164;2023-05-09T12:51:52;-11650.84;;;-142.29;58.22
7748;BME280;3918;42.564;23.164;2023-05-09T12:54:20;-11650.84;;;-142.29;54.40
7748;BME280;3918;42.564;23.164;2023-05-09T12:56:48;-11650.84;;;-142.29;56.14
7748;BME280;3918;42.564;23.164;2023-05-09T12:59:23;-11650.84;;;-142.29;55.18
7748;BME280;3918;42.564;23.164;2023-05-09T13:01:51;-11650.84;;;-142.29;56.54
7748;BME280;3918;42.564;23.164;2023-05-09T13:04:19;-11650.84;;;-142.29;56.22
7748;BME280;3918;42.564;23.164;2023-05-09T13:06:47;-11650.84;;;-142.29;56.21
7748;BME280;3918;42.564;23.164;2023-05-09T13:09:15;-11650.84;;;-142.29;57.13
7748;BME280;3918;42.564;23.164;2023-05-09T13:11:42;-11650.84;;;-142.29;55.30
7748;BME280;3918;42.564;23.164;2023-05-09T13:14:09;-11650.84;;;-142.29;57.18
7748;BME280;3918;42.564;23.164;2023-05-09T13:16:38;-11650.84;;;-142.29;55.51
7748;BME280;3918;42.564;23.164;2023-05-09T13:19:05;-11650.84;;;-142.29;55.17
7748;BME280;3918;42.564;23.164;2023-05-09T13:21:32;-11650.84;;;-142.29;57.68
7748;BME280;3918;42.564;23.164;2023-05-09T13:23:59;-11650.84;;;-142.29;57.13
7748;BME280;3918;42.564;23.164;2023-05-09T13:26:26;-11650.84;;;-142.29;56.74
7748;BME280;3918;42.564;23.164;2023-05-09T13:28:52;-11650.84;;;-142.29;57.00
7748;BME280;3918;42.564;23.164;2023-05-09T13:31:19;-11650.84;;;-142.29;57.80
7748;BME280;3918;42.564;23.164;2023-05-09T13:33:49;-11650.84;;;-142.29;58.03
7748;BME280;3918;42.564;23.164;2023-05-09T13:36:15;-11650.84;;;-142.29;59.27
7748;BME280;3918;42.564;23.164;2023-05-09T13:38:42;-11650.84;;;-142.29;63.48
7748;BME280;3918;42.564;23.164;2023-05-09T13:41:10;-11650.84;;;-142.29;63.55
7748;BME280;3918;42.564;23.164;2023-05-09T13:43:38;-11650.84;;;-142.29;69.04
7748;BME280;3918;42.564;23.164;2023-05-09T13:46:06;-11650.84;;;-142.29;70.79
7748;BME280;3918;42.564;23.164;2023-05-09T13:48:33;-11650.84;;;-142.29;74.51
7748;BME280;3918;42.564;23.164;2023-05-09T13:51:01;-11650.84;;;-142.29;76.14
7748;BME280;3918;42.564;23.164;2023-05-09T13:53:30;-11650.84;;;-142.29;80.72
7748;BME280;3918;42.564;23.164;2023-05-09T13:55:57;-11650.84;;;-142.29;81.53
7748;BME280;3918;42.564;23.164;2023-05-09T13:58:24;-11650.84;;;-142.29;83.23
7748;BME280;3918;42.564;23.164;2023-05-09T14:00:50;-11650.84;;;-142.29;83.39
7748;BME280;3918;42.564;23.164;2023-05-09T14:03:17;-11650.84;;;-142.29;89.29
7748;BME280;3918;42.564;23.164;2023-05-09T14:05:44;-11650.84;;;-142.29;90.76
7748;BME280;3918;42.564;23.164;2023-05-09T14:08:13;-11650.84;;;-142.29;92.12
7748;BME280;3918;42.564;23.164;2023-05-09T14:10:41;-11650.84;;;-142.29;100.00
7748;BME280;3918;42.564;23.164;2023-05-09T14:13:09;-11650.84;;;-142.29;100.00
7748;BME280;3918;42.564;23.164;2023-05-09T14:15:37;-11650.84;;;-142.29;100.00
7748;BME280;3918;42.564;23.164;2023-05-09T14:18:04;-11650.84;;;-142.29;100.00
7748;BME280;3918;42.564;23.164;2023-05-09T14:20:31;-11650.84;;;-142.29;100.00
7748;BME280;3918;42.564;23.164;2023-05-09T14:22:58;-11650.84;;;-142.29;100.00
7748;BME280;3918;42.564;23.164;2023-05-09T14:25:26;-11650.84;;;-142.29;100.00
7748;BME280;3918;42.564;23.164;2023-05-09T14:27:53;-11650.84;;;-142.29;100.00
7748;BME280;3918;42.564;23.164;2023-05-09T14:30:20;-11650.84;;;-142.29;100.00
7748;BME280;3918;42.564;23.164;2023-05-09T14:32:47;-11650.84;;;-142.29;100.00
7748;BME280;3918;42.564;23.164;2023-05-09T14:35:15;-11650.84;;;-142.29;100.00
7748;BME280;3918;42.564;23.164;2023-05-09T14:37:42;-11650.84;;;-142.29;100.00
7748;BME280;3918;42.564;23.164;2023-05-09T14:40:09;-11650.84;;;-142.29;100.00
7748;BME280;3918;42.564;23.164;2023-05-09T14:42:37;-11650.84;;;-142.29;100.00
7748;BME280;3918;42.564;23.164;2023-05-09T14:45:05;-11650.84;;;-142.29;100.00
7748;BME280;3918;42.564;23.164;2023-05-09T14:47:35;-11650.84;;;-142.29;100.00
7748;BME280;3918;42.564;23.164;2023-05-09T14:50:01;-11650.84;;;-142.29;100.00
7748;BME280;3918;42.564;23.164;2023-05-09T14:52:28;-11650.84;;;-142.29;100.00
7748;BME280;3918;42.564;23.164;2023-05-09T14:54:55;-11650.84;;;-142.29;100.00
7748;BME280;3918;42.564;23.164;2023-05-09T14:57:24;-11650.84;;;-142.29;100.00
7748;BME280;3918;42.564;23.164;2023-05-09T14:59:52;-11650.84;;;-142.29;100.00
7748;BME280;3918;42.564;23.164;2023-05-09T15:02:19;-11650.84;;;-142.29;100.00
7748;BME280;3918;42.564;23.164;2023-05-09T15:04:46;-11650.84;;;-142.29;100.00
7748;BME280;3918;42.564;23.164;2023-05-09T15:07:13;-11650.84;;;-142.29;100.00
7748;BME280;3918;42.564;23.164;2023-05-09T15:09:40;-11650.84;;;-142.29;100.00
7748;BME280;3918;42.564;23.164;2023-05-09T15:12:07;-11650.84;;;-142.29;100.00
7748;BME280;3918;42.564;23.164;2023-05-09T15:14:33;-11650.84;;;-142.29;100.00
7748;BME280;3918;42.564;23.164;2023-05-09T15:17:02;-11650.84;;;-142.29;100.00
7748;BME280;3918;42.564;23.164;2023-05-09T15:19:28;-11650.84;;;-142.29;100.00
7748;BME280;3918;42.564;23.164;2023-05-09T15:21:58;-11650.84;;;-142.29;100.00
7748;BME280;3918;42.564;23.164;2023-05-09T15:24:25;-11650.84;;;-142.29;100.00
7748;BME280;3918;42.564;23.164;2023-05-09T15:26:52;-11650.84;;;-142.29;100.00
7748;BME280;3918;42.564;23.164;2023-05-09T15:29:19;-11650.84;;;-142.29;100.00
7748;BME280;3918;42.564;23.164;2023-05-09T15:31:47;-11650.84;;;-142.29;100.00
7748;BME280;3918;42.564;23.164;2023-05-09T15:34:15;-11650.84;;;-142.29;100.00
7748;BME280;3918;42.564;23.164;2023-05-09T15:36:42;-11650.84;;;-142.29;100.00
7748;BME280;3918;42.564;23.164;2023-05-09T15:39:09;-11650.84;;;-142.29;100.00
7748;BME280;3918;42.564;23.164;2023-05-09T15:41:35;-11650.84;;;-142.29;100.00
7748;BME280;3918;42.564;23.164;2023-05-09T15:44:02;-11650.84;;;-142.29;100.00
7748;BME280;3918;42.564;23.164;2023-05-09T15:46:29;-11650.84;;;-142.29;100.00
7748;BME280;3918;42.564;23.164;2023-05-09T15:48:56;-11650.84;;;-142.29;100.00
7748;BME280;3918;42.564;23.164;2023-05-09T15:51:25;-11650.84;;;-142.29;100.00
7748;BME280;3918;42.564;23.164;2023-05-09T15:53:53;-11650.84;;;-142.29;100.00
7748;BME280;3918;42.564;23.164;2023-05-09T15:56:20;-11650.84;;;-142.29;100.00
7748;BME280;3918;42.564;23.164;2023-05-09T15:58:47;-11650.84;;;-142.29;100.00
7748;BME280;3918;42.564;23.164;2023-05-09T16:01:14;-11650.84;;;-142.29;100.00
7748;BME280;3918;42.564;23.164;2023-05-09T16:03:41;-11650.84;;;-142.29;100.00
7748;BME280;3918;42.564;23.164;2023-05-09T16:06:07;-11650.84;;;-142.29;100.00
7748;BME280;3918;42.564;23.164;2023-05-09T16:08:36;-11650.84;;;-142.29;100.00
7748;BME280;3918;42.564;23.164;2023-05-09T16:11:03;-11650.84;;;-142.29;100.00
7748;BME280;3918;42.564;23.164;2023-05-09T16:13:30;-11650.84;;;-142.29;100.00
7748;BME280;3918;42.564;23.164;2023-05-09T16:15:57;-11650.84;;;-142.29;100.00
7748;BME280;3918;42.564;23.164;2023-05-09T16:18:24;-11650.84;;;-142.29;100.00
7748;BME280;3918;42.564;23.164;2023-05-09T16:20:50;-11650.84;;;-142.29;100.00
7748;BME280;3918;42.564;23.164;2023-05-09T16:23:17;-11650.84;;;-142.29;100.00
7748;BME280;3918;42.564;23.164;2023-05-09T16:25:46;-11650.84;;;-142.29;100.00
7748;BME280;3918;42.564;23.164;2023-05-09T16:28:14;-11650.84;;;-142.29;100.00
7748;BME280;3918;42.564;23.164;2023-05-09T16:30:40;-11650.84;;;-142.29;100.00
7748;BME280;3918;42.564;23.164;2023-05-09T16:33:07;-11650.84;;;-142.29;100.00
7748;BME280;3918;42.564;23.164;2023-05-09T16:35:34;-11650.84;;;-142.29;100.00
7748;BME280;3918;42.564;23.164;2023-05-09T16:38:01;-11650.84;;;-142.29;100.00
7748;BME280;3918;42.564;23.164;2023-05-09T16:40:27;-11650.84;;;-142.29;100.00
7748;BME280;3918;42.564;23.164;2023-05-09T16:42:55;-11650.84;;;-142.29;100.00